Time;durP1;ratioP1;P1;durP2;ratioP2;P2;SDS_P1;SDS_P2;PMS_P1;PMS_P2;Temp;Humidity;BMP_temperature;BMP_pressure;BME280_temperature;BME280_humidity;BME280_pressure;Samples;Min_cycle;Max_cycle;Signal;HPM_P1;HPM_P2
2023/09/20 00:00:08;;;;;;;14.40;11.70;;;;;;;13.40;100.00;101278.14;109714;1251;60041;-69
2023/09/20 00:02:39;;;;;;;16.20;12.90;;;;;;;13.39;100.00;101277.50;109693;1251;73900;-71
2023/09/20 00:05:15;;;;;;;16.40;12.60;;;;;;;13.38;100.00;101275.27;109693;1251;62387;-69
2023/09/20 00:07:42;;;;;;;16.70;13.40;;;;;;;13.37;100.00;101275.88;109762;1251;71375;-69
2023/09/20 00:10:12;;;;;;;17.80;13.30;;;;;;;13.35;100.00;101270.91;109726;1249;61709;-69
2023/09/20 00:12:44;;;;;;;14.40;12.90;;;;;;;13.33;100.00;101275.76;109679;1250;61323;-69
2023/09/20 00:15:11;;;;;;;13.60;12.30;;;;;;;13.31;100.00;101277.98;109715;1250;73808;-70
2023/09/20 00:17:39;;;;;;;14.40;12.70;;;;;;;13.31;100.00;101283.12;109695;1251;62512;-70
2023/09/20 00:20:13;;;;;;;16.30;14.20;;;;;;;13.30;100.00;101278.42;109649;1251;71512;-71
2023/09/20 00:22:42;;;;;;;18.90;14.60;;;;;;;13.32;100.00;101275.84;109656;1251;61669;-70
2023/09/20 00:25:12;;;;;;;15.40;13.70;;;;;;;13.33;100.00;101276.30;109679;1249;60014;-69
2023/09/20 00:27:40;;;;;;;19.40;13.70;;;;;;;13.34;100.00;101276.98;109699;1251;72680;-71
2023/09/20 00:30:14;;;;;;;15.00;13.40;;;;;;;13.33;100.00;101274.37;109669;1250;63485;-68
2023/09/20 00:33:18;;;;;;;16.50;14.10;;;;;;;13.35;100.00;101268.98;102639;1294;600192;-72
2023/09/20 00:35:46;;;;;;;17.40;14.40;;;;;;;13.33;100.00;101274.90;104921;1272;60754;-72
2023/09/20 00:38:16;;;;;;;17.40;15.60;;;;;;;13.33;100.00;101274.92;104932;1267;59826;-71
2023/09/20 00:40:43;;;;;;;17.50;14.60;;;;;;;13.30;100.00;101279.63;105267;1262;72346;-72
2023/09/20 00:43:11;;;;;;;19.00;15.00;;;;;;;13.26;100.00;101275.80;105254;1262;63758;-73
2023/09/20 00:45:40;;;;;;;21.80;16.00;;;;;;;13.22;100.00;101281.33;105341;1262;71315;-73
2023/09/20 00:48:09;;;;;;;16.90;14.50;;;;;;;13.16;100.00;101283.11;105512;1254;198865;-73
2023/09/20 00:50:41;;;;;;;16.30;14.40;;;;;;;13.11;100.00;101285.52;105782;1251;59989;-73
2023/09/20 00:53:11;;;;;;;16.50;14.90;;;;;;;13.08;100.00;101283.95;105639;1251;72232;-71
2023/09/20 00:55:39;;;;;;;18.10;15.60;;;;;;;13.04;100.00;101281.33;105861;1256;63528;-71
2023/09/20 00:58:09;;;;;;;16.30;14.80;;;;;;;13.02;100.00;101280.95;105659;1253;72000;-71
2023/09/20 01:00:40;;;;;;;18.50;15.50;;;;;;;13.00;100.00;101286.33;105733;1256;60381;-72
2023/09/20 01:03:07;;;;;;;17.00;14.50;;;;;;;12.97;100.00;101285.48;105729;1256;59529;-73
2023/09/20 01:05:37;;;;;;;20.70;16.40;;;;;;;12.93;100.00;101288.34;105610;1260;71209;-69
2023/09/20 01:08:08;;;;;;;21.60;17.70;;;;;;;12.88;100.00;101290.54;106003;1254;62577;-72
2023/09/20 01:10:39;;;;;;;22.10;17.30;;;;;;;12.82;100.00;101290.71;105890;1253;72761;-73
2023/09/20 01:13:09;;;;;;;21.40;17.60;;;;;;;12.77;100.00;101295.23;105958;1256;61597;-70
2023/09/20 01:15:37;;;;;;;22.10;18.40;;;;;;;12.71;100.00;101294.00;105789;1253;60165;-71
2023/09/20 01:18:05;;;;;;;24.00;19.10;;;;;;;12.65;100.00;101291.68;105708;1251;71978;-70
2023/09/20 01:20:37;;;;;;;27.40;20.00;;;;;;;12.61;100.00;101286.35;105752;1253;62434;-69
2023/09/20 01:23:04;;;;;;;23.40;19.00;;;;;;;12.55;100.00;101288.06;105805;1254;71447;-70
2023/09/20 01:25:38;;;;;;;27.90;20.60;;;;;;;12.50;100.00;101290.28;105870;1256;61816;-71
2023/09/20 01:28:08;;;;;;;22.70;18.90;;;;;;;12.46;100.00;101287.94;105790;1256;60583;-72
2023/09/20 01:30:38;;;;;;;29.40;20.10;;;;;;;12.41;100.00;101288.88;105763;1256;71745;-71
2023/09/20 01:33:07;;;;;;;23.00;19.50;;;;;;;12.37;100.00;101293.52;105710;1256;63005;-69
2023/09/20 01:35:36;;;;;;;21.40;19.00;;;;;;;12.33;100.00;101294.41;105729;1253;71461;-72
2023/09/20 01:38:07;;;;;;;24.30;19.40;;;;;;;12.30;100.00;101293.73;105717;1256;60498;-73
2023/09/20 01:40:36;;;;;;;24.80;20.40;;;;;;;12.26;100.00;101293.60;105763;1256;59651;-71
2023/09/20 01:43:06;;;;;;;25.10;19.00;;;;;;;12.21;100.00;101293.47;105807;1256;73159;-71
2023/09/20 01:45:35;;;;;;;28.40;19.20;;;;;;;12.20;100.00;101293.74;105777;1252;62693;-69
2023/09/20 01:48:09;;;;;;;25.90;21.30;;;;;;;12.20;100.00;101295.14;105921;1256;71823;-71
2023/09/20 01:50:37;;;;;;;24.10;20.60;;;;;;;12.19;100.00;101298.36;105815;1253;61566;-71
2023/09/20 01:53:08;;;;;;;25.40;20.10;;;;;;;12.18;100.00;101297.69;105821;1256;59623;-71
2023/09/20 01:55:37;;;;;;;26.70;20.50;;;;;;;12.17;100.00;101304.63;105741;1253;73221;-73
2023/09/20 01:58:06;;;;;;;27.00;20.60;;;;;;;12.12;100.00;101298.56;105729;1257;63930;-70
2023/09/20 02:00:37;;;;;;;29.30;19.20;;;;;;;12.10;100.00;101304.67;105776;1256;72655;-72
2023/09/20 02:03:10;;;;;;;23.40;20.00;;;;;;;12.06;100.00;101305.75;105770;1254;60482;-71
2023/09/20 02:05:38;;;;;;;29.90;21.70;;;;;;;12.01;100.00;101305.45;105714;1259;60564;-72
2023/09/20 02:08:07;;;;;;;28.30;21.70;;;;;;;11.97;100.00;101305.52;105704;1252;72468;-69
2023/09/20 02:10:39;;;;;;;28.30;21.80;;;;;;;11.93;100.00;101306.27;105823;1251;63857;-70
2023/09/20 02:13:07;;;;;;;29.50;22.90;;;;;;;11.91;100.00;101307.48;105766;1256;72652;-71
2023/09/20 02:15:35;;;;;;;33.80;24.70;;;;;;;11.88;100.00;101303.73;105713;1252;62555;-70
2023/09/20 02:18:08;;;;;;;30.50;23.50;;;;;;;11.87;100.00;101305.01;105944;1252;60119;-71
2023/09/20 02:20:37;;;;;;;26.80;21.40;;;;;;;11.85;100.00;101306.54;105935;1253;72299;-72
2023/09/20 02:23:07;;;;;;;28.30;22.80;;;;;;;11.81;100.00;101304.42;105878;1256;62676;-74
2023/09/20 02:25:35;;;;;;;24.40;20.90;;;;;;;11.79;100.00;101305.08;105631;1258;71533;-74
2023/09/20 02:28:03;;;;;;;27.00;22.00;;;;;;;11.76;100.00;101301.38;105657;1251;61783;-70
2023/09/20 02:30:37;;;;;;;25.70;21.50;;;;;;;11.73;100.00;101307.86;105825;1251;59857;-71
2023/09/20 02:33:06;;;;;;;30.10;22.20;;;;;;;11.70;100.00;101307.82;105847;1253;71012;-71
2023/09/20 02:35:34;;;;;;;32.90;24.10;;;;;;;11.69;100.00;101311.95;105770;1256;63867;-71
2023/09/20 02:38:05;;;;;;;30.30;24.50;;;;;;;11.67;100.00;101311.18;105852;1253;71550;-73
2023/09/20 02:40:35;;;;;;;40.50;29.10;;;;;;;11.66;100.00;101310.53;105719;1256;60479;-69
2023/09/20 02:43:08;;;;;;;33.30;26.10;;;;;;;11.67;100.00;101314.30;105744;1256;59620;-70
2023/09/20 02:45:39;;;;;;;35.20;28.00;;;;;;;11.68;100.00;101308.67;105723;1258;73026;-71
2023/09/20 02:48:08;;;;;;;29.80;24.40;;;;;;;11.68;100.00;101308.69;105699;1253;62291;-71
2023/09/20 02:50:36;;;;;;;34.90;25.40;;;;;;;11.66;100.00;101311.58;105787;1258;72503;-71
2023/09/20 02:53:05;;;;;;;29.90;23.60;;;;;;;11.63;100.00;101315.75;105725;1256;61731;-72
2023/09/20 02:55:34;;;;;;;26.30;22.00;;;;;;;11.60;100.00;101319.55;105795;1256;59702;-70
2023/09/20 02:58:01;;;;;;;27.10;22.10;;;;;;;11.58;100.00;101321.06;105822;1256;71499;-73
2023/09/20 03:00:30;;;;;;;31.90;23.10;;;;;;;11.56;100.00;101322.21;105905;1258;63623;-72
2023/09/20 03:03:02;;;;;;;29.00;24.90;;;;;;;11.54;100.00;101321.45;105811;1259;72670;-72
2023/09/20 03:05:32;;;;;;;38.60;25.70;;;;;;;11.54;100.00;101320.61;105881;1256;61678;-73
2023/09/20 03:08:04;;;;;;;32.00;24.20;;;;;;;11.54;100.00;101320.98;105840;1253;60025;-73
2023/09/20 03:10:33;;;;;;;39.50;25.40;;;;;;;11.55;100.00;101324.77;105926;1252;72362;-74
2023/09/20 03:13:03;;;;;;;33.90;25.40;;;;;;;11.54;100.00;101328.11;105728;1258;63583;-73
2023/09/20 03:15:32;;;;;;;34.30;26.80;;;;;;;11.53;100.00;101330.98;105709;1256;71517;-72
2023/09/20 03:18:05;;;;;;;36.60;28.70;;;;;;;11.51;100.00;101327.40;105745;1253;60444;-70
2023/09/20 03:20:33;;;;;;;40.70;30.50;;;;;;;11.48;100.00;101329.84;105812;1256;59633;-73
2023/09/20 03:23:05;;;;;;;42.00;33.00;;;;;;;11.45;100.00;101330.52;105696;1253;71802;-73
2023/09/20 03:25:37;;;;;;;42.80;32.60;;;;;;;11.42;100.00;101328.25;105806;1253;62479;-72
2023/09/20 03:28:12;;;;;;;49.70;34.70;;;;;;;11.40;100.00;101327.44;105721;1254;71115;-73
2023/09/20 03:30:39;;;;;;;52.70;37.00;;;;;;;11.41;100.00;101328.46;105726;1253;61935;-73
2023/09/20 03:33:08;;;;;;;50.40;36.70;;;;;;;11.41;100.00;101326.52;105723;1256;60738;-72
2023/09/20 03:35:38;;;;;;;50.10;37.80;;;;;;;11.41;100.00;101327.20;105732;1251;71847;-74
2023/09/20 03:38:05;;;;;;;52.20;37.70;;;;;;;11.40;100.00;101330.23;105712;1256;63807;-71
2023/09/20 03:40:33;;;;;;;52.30;36.00;;;;;;;11.41;100.00;101331.61;105899;1253;72673;-72
2023/09/20 03:43:07;;;;;;;44.00;35.00;;;;;;;11.40;100.00;101327.97;105780;1254;60640;-71
2023/09/20 03:45:38;;;;;;;49.20;34.40;;;;;;;11.39;100.00;101333.27;105853;1256;59551;-71
2023/09/20 03:48:06;;;;;;;44.30;33.20;;;;;;;11.38;100.00;101332.80;105773;1259;73082;-72
2023/09/20 03:50:33;;;;;;;43.60;31.10;;;;;;;11.37;100.00;101336.19;105762;1256;63729;-73
2023/09/20 03:53:01;;;;;;;43.80;32.50;;;;;;;11.35;100.00;101333.98;105849;1254;71822;-71
2023/09/20 03:55:28;;;;;;;51.40;35.50;;;;;;;11.35;100.00;101333.80;105736;1253;61784;-71
2023/09/20 03:57:56;;;;;;;64.30;40.10;;;;;;;11.36;100.00;101331.33;105938;1259;59618;-73
2023/09/20 04:00:31;;;;;;;62.90;37.50;;;;;;;11.38;100.00;101331.59;105839;1256;72356;-72
2023/09/20 04:03:00;;;;;;;52.10;36.50;;;;;;;11.40;100.00;101332.52;105939;1251;63170;-72
2023/09/20 04:05:28;;;;;;;51.00;32.80;;;;;;;11.43;100.00;101335.88;105624;1251;72811;-72
2023/09/20 04:08:11;;;;;;;39.80;30.10;;;;;;;11.45;100.00;101335.09;105645;1253;60483;-72
2023/09/20 04:10:40;;;;;;;41.10;28.60;;;;;;;11.46;100.00;101335.89;105737;1251;60328;-70
2023/09/20 04:13:09;;;;;;;35.60;29.90;;;;;;;11.49;100.00;101334.17;105745;1251;71829;-71
2023/09/20 04:15:40;;;;;;;42.40;29.80;;;;;;;11.51;100.00;101335.13;105821;1254;63177;-72
2023/09/20 04:18:09;;;;;;;38.70;27.50;;;;;;;11.53;100.00;101333.63;105671;1253;71469;-71
2023/09/20 04:20:37;;;;;;;41.70;29.10;;;;;;;11.55;100.00;101333.84;105792;1253;60700;-72
2023/09/20 04:23:06;;;;;;;36.30;26.90;;;;;;;11.59;100.00;101333.13;105876;1257;59727;-72
2023/09/20 04:25:34;;;;;;;39.90;29.40;;;;;;;11.62;100.00;101333.33;105723;1257;72493;-70
2023/09/20 04:28:02;;;;;;;45.90;30.30;;;;;;;11.66;100.00;101333.98;105717;1254;63150;-74
2023/09/20 04:30:30;;;;;;;39.90;30.10;;;;;;;11.70;100.00;101331.46;105798;1253;70492;-72
2023/09/20 04:32:59;;;;;;;35.10;25.60;;;;;;;11.76;100.00;101335.73;105750;1256;60653;-72
2023/09/20 04:35:36;;;;;;;37.10;28.60;;;;;;;11.82;100.00;101334.15;105732;1256;59490;-74
2023/09/20 04:38:08;;;;;;;29.40;23.40;;;;;;;11.91;100.00;101331.27;105669;1258;72210;-73
2023/09/20 04:40:36;;;;;;;29.00;24.20;;;;;;;12.01;100.00;101331.97;105764;1253;62730;-72
2023/09/20 04:43:05;;;;;;;35.90;25.60;;;;;;;12.13;100.00;101331.30;105670;1253;72743;-74
2023/09/20 04:45:33;;;;;;;19.90;14.20;;;;;;;12.31;100.00;101333.77;105731;1256;60752;-72
2023/09/20 04:48:01;;;;;;;36.10;23.90;;;;;;;12.54;100.00;101337.79;105761;1257;60429;-73
2023/09/20 04:50:29;;;;;;;14.00;12.40;;;;;;;12.94;100.00;101338.63;105868;1251;73962;-73
2023/09/20 04:52:56;;;;;;;19.10;14.80;;;;;;;13.61;100.00;101336.07;105878;1256;63843;-70
2023/09/20 04:55:25;;;;;;;28.00;15.10;;;;;;;14.49;100.00;101335.81;105609;1257;71385;-74
2023/09/20 04:57:53;;;;;;;25.80;20.10;;;;;;;15.49;100.00;101335.13;105737;1253;61916;-72
2023/09/20 05:00:33;;;;;;;14.10;10.60;;;;;;;16.49;100.00;101340.77;105860;1259;60438;-73
2023/09/20 05:03:02;;;;;;;11.20;8.90;;;;;;;17.51;100.00;101341.09;105759;1252;71669;-71
2023/09/20 05:05:31;;;;;;;15.80;11.10;;;;;;;18.39;100.00;101339.77;105865;1254;62574;-72
2023/09/20 05:07:58;;;;;;;23.00;13.80;;;;;;;19.21;100.00;101339.92;105714;1251;73301;-73
2023/09/20 05:10:27;;;;;;;11.50;7.20;;;;;;;19.92;100.00;101338.55;105717;1254;60901;-73
2023/09/20 05:12:54;;;;;;;9.80;7.60;;;;;;;20.45;100.00;101333.27;105765;1253;61198;-73
2023/09/20 05:15:23;;;;;;;7.10;5.90;;;;;;;20.69;96.01;101335.80;105770;1257;73841;-72
2023/09/20 05:17:51;;;;;;;6.60;6.00;;;;;;;20.68;86.73;101334.41;105732;1251;62253;-72
2023/09/20 05:20:20;;;;;;;8.90;6.60;;;;;;;20.72;85.27;101335.45;105955;1256;71291;-74
2023/09/20 05:22:48;;;;;;;9.30;6.20;;;;;;;20.80;80.55;101341.21;105726;1251;60450;-71
2023/09/20 05:25:16;;;;;;;6.30;5.70;;;;;;;20.95;77.79;101340.66;105720;1256;60461;-75
2023/09/20 05:27:44;;;;;;;6.30;5.70;;;;;;;21.39;73.64;101342.23;105797;1256;72954;-75
2023/09/20 05:30:13;;;;;;;6.40;5.60;;;;;;;21.99;68.01;101339.23;105705;1254;62655;-75
2023/09/20 05:32:41;;;;;;;6.00;5.40;;;;;;;22.58;62.84;101336.10;105773;1256;72714;-75
2023/09/20 05:35:11;;;;;;;8.90;6.50;;;;;;;23.21;57.11;101332.80;105788;1256;60500;-73
2023/09/20 05:37:39;;;;;;;7.80;5.40;;;;;;;23.87;52.32;101337.95;105696;1254;60489;-75
2023/09/20 05:40:13;;;;;;;7.80;5.80;;;;;;;24.47;49.90;101332.17;105736;1253;72899;-74
2023/09/20 05:42:41;;;;;;;6.50;5.80;;;;;;;25.09;47.98;101336.20;105849;1256;63669;-75
2023/09/20 05:45:09;;;;;;;9.80;5.60;;;;;;;25.69;46.02;101336.96;105719;1254;72812;-73
2023/09/20 05:47:36;;;;;;;8.60;5.80;;;;;;;26.32;44.43;101336.27;105784;1252;60508;-72
2023/09/20 05:50:10;;;;;;;9.30;6.20;;;;;;;26.95;42.93;101332.84;105824;1256;60479;-76
2023/09/20 05:52:40;;;;;;;9.30;5.40;;;;;;;27.55;39.51;101335.43;105719;1256;73985;-72
2023/09/20 05:55:11;;;;;;;7.20;5.60;;;;;;;28.02;39.46;101330.53;105856;1256;62379;-72
2023/09/20 05:57:40;;;;;;;9.40;6.10;;;;;;;28.53;38.19;101331.38;105724;1251;72715;-72
2023/09/20 06:00:16;;;;;;;7.40;5.70;;;;;;;29.04;37.53;101333.98;105874;1256;60567;-73
2023/09/20 06:02:44;;;;;;;7.40;5.60;;;;;;;29.54;35.39;101331.77;105716;1254;60472;-73
2023/09/20 06:05:14;;;;;;;9.10;6.00;;;;;;;29.94;34.00;101335.72;105786;1256;73910;-74
2023/09/20 06:07:44;;;;;;;10.90;6.20;;;;;;;30.27;33.43;101334.45;105897;1256;63263;-73
2023/09/20 06:10:12;;;;;;;10.30;5.10;;;;;;;30.58;32.46;101330.80;105947;1256;71488;-74
2023/09/20 06:12:39;;;;;;;11.40;6.60;;;;;;;30.83;31.51;101330.86;105762;1256;60414;-72
2023/09/20 06:15:08;;;;;;;9.80;6.30;;;;;;;31.01;31.46;101326.00;105779;1253;62811;-74
2023/09/20 06:17:36;;;;;;;13.00;10.10;;;;;;;31.24;31.28;101325.82;105751;1257;73880;-73
2023/09/20 06:20:09;;;;;;;9.80;7.00;;;;;;;31.53;31.68;101325.04;105869;1256;63712;-72
2023/09/20 06:22:36;;;;;;;8.60;7.70;;;;;;;31.76;31.13;101328.20;105861;1256;72961;-73
2023/09/20 06:25:06;;;;;;;10.60;7.40;;;;;;;31.79;30.13;101324.18;105745;1256;60850;-75
2023/09/20 06:27:34;;;;;;;15.30;8.20;;;;;;;31.69;30.45;101326.09;105825;1253;60489;-73
2023/09/20 06:30:12;;;;;;;13.20;8.20;;;;;;;31.73;30.58;101324.50;105684;1256;74233;-73
2023/09/20 06:32:44;;;;;;;23.00;11.90;;;;;;;31.91;30.36;101322.59;105730;1256;63665;-73
2023/09/20 06:35:14;;;;;;;29.20;14.60;;;;;;;32.10;29.55;101326.40;105702;1253;71421;-71
2023/09/20 06:37:45;;;;;;;37.60;17.80;;;;;;;32.13;29.22;101326.29;105747;1254;60502;-73
2023/09/20 06:40:23;;;;;;;38.70;18.80;;;;;;;32.02;29.19;101325.11;105811;1256;60431;-74
2023/09/20 06:42:51;;;;;;;30.30;15.40;;;;;;;32.01;29.16;101328.16;105765;1259;72835;-76
2023/09/20 06:45:19;;;;;;;31.10;16.40;;;;;;;32.12;28.93;101324.75;105823;1256;63689;-75
2023/09/20 06:47:46;;;;;;;30.70;15.40;;;;;;;32.27;28.45;101328.95;105668;1251;72969;-74
2023/09/20 06:50:14;;;;;;;30.80;14.10;;;;;;;32.39;28.40;101330.30;105697;1256;60405;-72
2023/09/20 06:52:42;;;;;;;27.40;13.60;;;;;;;32.56;28.58;101327.73;105722;1256;60546;-71
2023/09/20 06:55:13;;;;;;;29.90;13.90;;;;;;;32.86;28.71;101324.56;105785;1256;73874;-71
2023/09/20 06:57:41;;;;;;;23.10;12.10;;;;;;;33.24;28.62;101331.00;105744;1251;62576;-72
2023/09/20 07:00:25;;;;;;;21.70;10.10;;;;;;;33.59;28.16;101331.63;105745;1256;70401;-73
2023/09/20 07:02:55;;;;;;;14.60;8.40;;;;;;;33.95;27.75;101333.14;105882;1252;60411;-73
2023/09/20 07:05:28;;;;;;;14.40;8.30;;;;;;;34.19;26.77;101336.69;105806;1256;60414;-73
2023/09/20 07:08:00;;;;;;;11.40;7.40;;;;;;;34.44;26.52;101335.14;105881;1257;72625;-72
2023/09/20 07:10:31;;;;;;;14.00;7.40;;;;;;;34.74;26.84;101331.23;105859;1251;62432;-73
2023/09/20 07:13:01;;;;;;;16.70;6.60;;;;;;;35.06;25.68;101332.06;105780;1254;72711;-71
2023/09/20 07:15:28;;;;;;;8.50;5.90;;;;;;;35.28;25.37;101339.80;105725;1253;60418;-72
2023/09/20 07:17:59;;;;;;;8.20;6.30;;;;;;;35.52;25.15;101336.16;105712;1251;60324;-70
2023/09/20 07:20:28;;;;;;;12.30;6.40;;;;;;;35.80;25.25;101339.34;105724;1256;73909;-74
2023/09/20 07:22:58;;;;;;;8.20;4.30;;;;;;;36.08;25.13;101337.84;105770;1256;62679;-75
2023/09/20 07:25:27;;;;;;;10.60;4.20;;;;;;;36.30;24.09;101344.49;105775;1256;72653;-72
2023/09/20 07:27:58;;;;;;;8.70;4.60;;;;;;;36.35;23.91;101340.64;105792;1256;61949;-71
2023/09/20 07:30:31;;;;;;;10.70;4.10;;;;;;;36.40;23.46;101339.52;105703;1262;60300;-74
2023/09/20 07:33:02;;;;;;;6.60;3.40;;;;;;;36.39;23.09;101341.91;105703;1257;63720;-73
2023/09/20 07:35:39;;;;;;;10.00;4.20;;;;;;;36.37;23.29;101337.27;105651;1256;63179;-70
2023/09/20 07:38:19;;;;;;;7.90;4.50;;;;;;;36.47;23.57;101343.21;105750;1256;63842;-73
2023/09/20 07:40:50;;;;;;;10.60;3.90;;;;;;;36.62;23.31;101339.71;105712;1256;60458;-73
2023/09/20 07:43:18;;;;;;;4.70;3.40;;;;;;;36.74;22.91;101335.80;105755;1256;60512;-76
2023/09/20 07:45:56;;;;;;;4.20;3.80;;;;;;;36.90;23.59;101334.29;105679;1256;64899;-76
2023/09/20 07:48:27;;;;;;;4.30;3.90;;;;;;;37.15;23.34;101329.23;105690;1259;60671;-71
2023/09/20 07:50:55;;;;;;;6.40;3.70;;;;;;;37.44;23.33;101328.25;105850;1259;66111;-73
2023/09/20 07:53:25;;;;;;;7.90;4.10;;;;;;;37.64;22.81;101329.41;105660;1256;60470;-72
2023/09/20 07:55:58;;;;;;;4.30;3.90;;;;;;;37.88;22.70;101330.39;105886;1254;62128;-72
2023/09/20 07:58:26;;;;;;;5.00;3.40;;;;;;;38.07;22.07;101324.52;105742;1256;65795;-71
2023/09/20 08:00:56;;;;;;;4.60;3.30;;;;;;;38.23;21.00;101326.20;105731;1257;60534;-71
2023/09/20 08:03:24;;;;;;;10.50;3.90;;;;;;;38.24;21.07;101326.66;105765;1257;65295;-72
2023/09/20 08:05:53;;;;;;;4.90;3.90;;;;;;;38.32;20.72;101324.98;105738;1257;61117;-73
2023/09/20 08:08:21;;;;;;;7.00;3.50;;;;;;;38.30;20.36;101323.27;105902;1257;60572;-74
2023/09/20 08:10:50;;;;;;;4.80;3.70;;;;;;;38.16;20.21;101320.08;105827;1257;65110;-73
2023/09/20 08:13:40;;;;;;;4.10;3.00;;;;;;;38.02;20.26;101313.17;105697;1256;62019;-73
2023/09/20 08:16:10;;;;;;;4.30;2.60;;;;;;;37.92;19.95;101312.73;105795;1255;62737;-73
2023/09/20 08:21:26;;;;;;;5.70;2.90;;;;;;;37.84;20.02;101308.10;105796;1256;60537;-75
2023/09/20 09:00:30;;;;;;;5.70;2.60;;;;;;;36.49;20.57;101274.05;105766;1254;60543;-76
2023/09/20 09:03:00;;;;;;;3.40;3.10;;;;;;;36.56;20.16;101276.17;105908;1256;60345;-72
2023/09/20 09:05:29;;;;;;;4.20;2.40;;;;;;;36.51;20.35;101272.55;105796;1256;66894;-74
2023/09/20 09:07:58;;;;;;;4.30;2.80;;;;;;;36.57;20.23;101271.55;105842;1256;62154;-76
2023/09/20 09:10:26;;;;;;;3.00;2.40;;;;;;;36.71;20.09;101269.48;105902;1258;66514;-77
2023/09/20 09:12:55;;;;;;;6.20;2.50;;;;;;;36.86;19.95;101270.30;105848;1257;60545;-74
2023/09/20 09:15:25;;;;;;;4.80;2.80;;;;;;;36.97;19.49;101276.13;105925;1252;60454;-74
2023/09/20 09:17:53;;;;;;;3.20;2.20;;;;;;;36.99;19.72;101269.71;105720;1256;63947;-77
2023/09/20 09:20:22;;;;;;;4.70;2.60;;;;;;;37.11;19.99;101268.85;105731;1260;60558;-76
2023/09/20 09:22:50;;;;;;;2.70;2.50;;;;;;;37.26;19.93;101271.01;105767;1257;62447;-74
2023/09/20 09:25:19;;;;;;;9.20;3.00;;;;;;;37.26;19.47;101269.32;105838;1250;60440;-75
2023/09/20 09:27:50;;;;;;;3.00;2.80;;;;;;;37.16;19.39;101266.67;105823;1251;60521;-74
2023/09/20 09:30:17;;;;;;;3.20;2.90;;;;;;;36.91;19.71;101270.91;105731;1256;77332;-75
2023/09/20 09:32:47;;;;;;;3.40;2.80;;;;;;;36.71;19.65;101268.68;105894;1257;63851;-76
2023/09/20 09:35:18;;;;;;;3.60;2.90;;;;;;;36.71;19.93;101267.19;105708;1251;73435;-73
2023/09/20 09:38:00;;;;;;;2.80;2.50;;;;;;;36.91;19.57;101262.33;105818;1256;61149;-71
2023/09/20 09:40:28;;;;;;;3.30;2.10;;;;;;;37.09;19.86;101261.77;105868;1257;60360;-73
2023/09/20 09:43:15;;;;;;;6.40;3.00;;;;;;;37.26;19.74;101261.23;105827;1251;66556;-72
2023/09/20 09:45:51;;;;;;;3.90;2.70;;;;;;;37.37;19.46;101257.86;105816;1254;62445;-74
2023/09/20 09:48:18;;;;;;;4.40;2.70;;;;;;;37.37;19.04;101254.45;105921;1257;64482;-74
2023/09/20 09:50:46;;;;;;;4.60;2.30;;;;;;;37.33;18.75;101256.83;105818;1258;60547;-73
2023/09/20 09:53:14;;;;;;;4.30;2.60;;;;;;;37.26;18.92;101250.78;106010;1256;60418;-75
2023/09/20 09:55:42;;;;;;;3.40;3.10;;;;;;;37.35;19.39;101251.83;105725;1251;64946;-70
2023/09/20 09:58:10;;;;;;;3.40;3.00;;;;;;;37.51;19.25;101253.20;105705;1256;60514;-72
2023/09/20 10:00:39;;;;;;;3.40;2.80;;;;;;;37.55;18.93;101250.14;105816;1261;66130;-77
2023/09/20 10:03:15;;;;;;;5.10;2.70;;;;;;;37.57;19.32;101246.66;105979;1258;60555;-74
2023/09/20 10:05:44;;;;;;;6.40;2.60;;;;;;;37.65;19.14;101251.39;105863;1256;60349;-76
2023/09/20 10:08:13;;;;;;;4.00;2.70;;;;;;;37.63;19.26;101250.08;105816;1257;67272;-75
2023/09/20 10:10:44;;;;;;;3.20;2.30;;;;;;;37.64;19.13;101249.75;105839;1257;60432;-73
2023/09/20 10:13:13;;;;;;;4.20;2.50;;;;;;;37.71;19.40;101242.59;105774;1258;63714;-72
2023/09/20 10:15:43;;;;;;;3.30;3.00;;;;;;;37.83;19.20;101240.47;105806;1254;60549;-73
2023/09/20 10:18:11;;;;;;;4.20;2.60;;;;;;;37.84;18.77;101241.19;105893;1253;60335;-73
2023/09/20 10:21:06;;;;;;;3.90;2.50;;;;;;;37.80;18.64;101241.41;105777;1252;65729;-74
2023/09/20 10:23:37;;;;;;;3.30;2.20;;;;;;;37.67;18.60;101238.49;105924;1251;60447;-76
2023/09/20 10:26:18;;;;;;;4.60;2.30;;;;;;;37.56;18.60;101239.09;105862;1254;63272;-73
2023/09/20 10:28:47;;;;;;;3.00;2.60;;;;;;;37.36;18.56;101233.27;105793;1251;60435;-73
2023/09/20 10:31:15;;;;;;;2.70;2.40;;;;;;;37.16;18.63;101232.31;105838;1251;60490;-76
2023/09/20 10:33:47;;;;;;;4.00;2.50;;;;;;;37.00;18.84;101227.22;109395;1251;65696;-72
2023/09/20 10:36:22;;;;;;;2.60;2.40;;;;;;;36.91;19.57;101221.11;109623;1251;63714;-73
2023/09/20 10:39:16;;;;;;;3.40;2.50;;;;;;;36.92;19.65;101227.34;109580;1251;63481;-72
2023/09/20 10:41:45;;;;;;;2.80;2.60;;;;;;;36.87;19.26;101223.78;109577;1251;58200;-72
2023/09/20 10:44:36;;;;;;;2.60;2.40;;;;;;;36.76;19.65;101224.46;109651;1251;58215;-72
2023/09/20 10:47:12;;;;;;;3.00;2.00;;;;;;;36.67;19.66;101222.86;109601;1251;65001;-75
2023/09/20 10:49:49;;;;;;;2.50;2.40;;;;;;;36.59;19.63;101214.64;109422;1251;62429;-72
2023/09/20 10:52:32;;;;;;;3.40;2.30;;;;;;;36.66;19.91;101213.06;109552;1251;62502;-72
2023/09/20 10:55:24;;;;;;;5.50;2.30;;;;;;;36.81;19.69;101217.58;109505;1254;60540;-74
2023/09/20 10:57:52;;;;;;;2.80;2.60;;;;;;;36.95;19.96;101216.66;109604;1251;58189;-72
2023/09/20 11:00:25;;;;;;;3.40;2.20;;;;;;;37.09;19.36;101214.67;109420;1251;67480;-73
2023/09/20 11:02:52;;;;;;;4.00;2.40;;;;;;;37.18;19.04;101214.89;109614;1251;58120;-72
2023/09/20 11:05:23;;;;;;;4.80;2.30;;;;;;;37.19;18.57;101208.84;109573;1251;63848;-72
2023/09/20 11:07:53;;;;;;;2.20;1.60;;;;;;;37.14;18.67;101208.83;109549;1254;58085;-74
2023/09/20 11:10:21;;;;;;;2.30;2.20;;;;;;;37.04;18.50;101207.00;109526;1251;58167;-73
2023/09/20 11:12:50;;;;;;;2.70;2.10;;;;;;;36.97;18.82;101206.26;109652;1251;65120;-73
2023/09/20 11:15:18;;;;;;;2.10;1.90;;;;;;;36.82;18.59;101206.44;109669;1250;58113;-72
2023/09/20 11:17:47;;;;;;;3.50;2.30;;;;;;;36.55;18.44;101199.48;109635;1250;65935;-72
2023/09/20 11:20:15;;;;;;;1.70;1.60;;;;;;;36.29;19.12;101195.83;109639;1251;58135;-70
2023/09/20 11:22:43;;;;;;;1.80;1.70;;;;;;;36.03;18.74;101197.89;109656;1250;58066;-72
2023/09/20 11:25:11;;;;;;;6.40;2.30;;;;;;;35.63;19.11;101197.02;109630;1251;73925;-72
2023/09/20 11:27:39;;;;;;;6.00;2.10;;;;;;;35.42;19.71;101194.21;109627;1250;62576;-73
2023/09/20 11:30:11;;;;;;;2.50;2.30;;;;;;;35.25;20.04;101188.77;109561;1251;71065;-72
2023/09/20 11:32:39;;;;;;;3.10;2.20;;;;;;;35.05;20.61;101191.55;109617;1250;58874;-71
2023/09/20 11:35:07;;;;;;;4.80;2.30;;;;;;;34.85;20.82;101184.16;109685;1250;59322;-73
2023/09/20 11:37:35;;;;;;;3.60;2.40;;;;;;;34.58;20.93;101184.38;109641;1250;73662;-72
2023/09/20 11:40:04;;;;;;;3.10;2.70;;;;;;;34.25;21.31;101181.30;109664;1250;65576;-73
2023/09/20 11:42:34;;;;;;;4.60;2.50;;;;;;;34.07;21.63;101177.32;109684;1251;72474;-72
2023/09/20 11:45:08;;;;;;;5.80;2.40;;;;;;;33.92;21.83;101173.79;109613;1251;58606;-71
2023/09/20 11:47:56;;;;;;;2.30;2.10;;;;;;;33.69;21.95;101168.61;109653;1250;58635;-72
2023/09/20 11:50:26;;;;;;;4.10;2.50;;;;;;;33.59;23.11;101171.51;109606;1250;73035;-74
2023/09/20 11:52:54;;;;;;;2.70;2.00;;;;;;;33.55;22.82;101172.09;109655;1250;63532;-71
2023/09/20 11:55:22;;;;;;;4.70;2.20;;;;;;;33.51;22.52;101172.20;109612;1250;71286;-72
2023/09/20 11:57:52;;;;;;;4.90;2.30;;;;;;;33.48;22.95;101169.67;109591;1251;58878;-71